Cairo, Egypt
Current Conditions -  °F | °C
As of 10:00 AM on Monday 26 Jan 2015 (Local Time) from HECA Reporting Station
Broken Clouds Broken Clouds  
Wind Chill: 17°   Ceiling: 7000
Heat Index: 17°   Visibility: 4mi
Dew Point: 15°   Wind: 8mph
Humidity: 88%   Direction: 30°NNE
Pressure: 30.15"   Gusts: NA
Location:  30.06°N, 31.25°E
Report Text: HECA 260800Z 03007KT 6000 FEW025 BKN070 17/15 Q1021 NOSIG
Loading
Personal Weather Stations






























Interactive Weather Map New forecast layout! Learn more

10-Day Weather Forecast

Advertisements
Track Severe Weather on mobile